ISM weather

Kissimmee Gateway Airport
Orlando, Florida, United States

Public forecast

Using degrees Fahrenheit for public forecast. Weather courtesy of forecast.io.

METAR (pilot weather report)

Retrieved 2019/06/15 21:56 UTC (13 minutes ago):

KISM 152156Z 12011KT 10SM FEW049 BKN090 29/24 A3005 RMK AO2 SLP175 T02890239 PNO $

TAF (pilot weather forecast)

Retrieved 2019/06/15 18:27 UTC (4 hours ago):

TAF KISM 151724Z 1518/1618 09008KT P6SM VCTS SCT030CB BKN050 TEMPO 1518/1520 3SM TSRA BKN030CB FM152200 08010KT P6SM SCT040 SCT080 BKN250 FM160000 09005KT P6SM FEW040 BKN250 FM161400 VRB05KT P6SM SCT025 BKN035